sensor_id;sensor_type;location;lat;lon;timestamp;P1;durP1;ratioP1;P2;durP2;ratioP2
11313;SDS011;5712;48.858;9.206;2024-03-22T00:00:00;15.47;;;10.10;;
11313;SDS011;5712;48.858;9.206;2024-03-22T00:02:26;16.20;;;9.87;;
11313;SDS011;5712;48.858;9.206;2024-03-22T00:04:53;16.10;;;10.47;;
11313;SDS011;5712;48.858;9.206;2024-03-22T00:07:19;16.47;;;10.83;;
11313;SDS011;5712;48.858;9.206;2024-03-22T00:09:45;17.73;;;10.77;;
11313;SDS011;5712;48.858;9.206;2024-03-22T00:12:11;17.37;;;10.70;;
11313;SDS011;5712;48.858;9.206;2024-03-22T00:14:37;20.40;;;11.30;;
11313;SDS011;5712;48.858;9.206;2024-03-22T00:17:03;15.00;;;10.40;;
11313;SDS011;5712;48.858;9.206;2024-03-22T00:19:29;14.60;;;10.33;;
11313;SDS011;5712;48.858;9.206;2024-03-22T00:21:57;17.57;;;11.10;;
11313;SDS011;5712;48.858;9.206;2024-03-22T00:24:22;20.10;;;11.60;;
11313;SDS011;5712;48.858;9.206;2024-03-22T00:26:49;21.53;;;11.80;;
11313;SDS011;5712;48.858;9.206;2024-03-22T00:29:14;21.43;;;12.13;;
11313;SDS011;5712;48.858;9.206;2024-03-22T00:31:41;19.20;;;11.40;;
11313;SDS011;5712;48.858;9.206;2024-03-22T00:34:06;17.53;;;11.60;;
11313;SDS011;5712;48.858;9.206;2024-03-22T00:36:33;17.67;;;11.73;;
11313;SDS011;5712;48.858;9.206;2024-03-22T00:39:00;17.57;;;11.20;;
11313;SDS011;5712;48.858;9.206;2024-03-22T00:41:26;16.20;;;11.40;;
11313;SDS011;5712;48.858;9.206;2024-03-22T00:43:52;21.30;;;13.13;;
11313;SDS011;5712;48.858;9.206;2024-03-22T00:46:18;18.30;;;11.57;;
11313;SDS011;5712;48.858;9.206;2024-03-22T00:48:44;18.17;;;11.53;;
11313;SDS011;5712;48.858;9.206;2024-03-22T00:51:10;17.77;;;11.37;;
11313;SDS011;5712;48.858;9.206;2024-03-22T00:53:36;20.63;;;11.93;;
11313;SDS011;5712;48.858;9.206;2024-03-22T00:56:04;19.83;;;12.07;;
11313;SDS011;5712;48.858;9.206;2024-03-22T00:58:30;17.80;;;11.30;;
11313;SDS011;5712;48.858;9.206;2024-03-22T01:00:56;18.37;;;11.50;;
11313;SDS011;5712;48.858;9.206;2024-03-22T01:03:22;17.17;;;11.00;;
11313;SDS011;5712;48.858;9.206;2024-03-22T01:05:48;20.23;;;12.50;;
11313;SDS011;5712;48.858;9.206;2024-03-22T01:08:14;19.93;;;12.27;;
11313;SDS011;5712;48.858;9.206;2024-03-22T01:10:41;21.77;;;12.17;;
11313;SDS011;5712;48.858;9.206;2024-03-22T01:13:08;18.40;;;11.60;;
11313;SDS011;5712;48.858;9.206;2024-03-22T01:15:34;18.37;;;11.53;;
11313;SDS011;5712;48.858;9.206;2024-03-22T01:18:00;17.90;;;12.20;;
11313;SDS011;5712;48.858;9.206;2024-03-22T01:20:27;18.87;;;11.50;;
11313;SDS011;5712;48.858;9.206;2024-03-22T01:22:52;17.50;;;11.33;;
11313;SDS011;5712;48.858;9.206;2024-03-22T01:25:19;16.57;;;10.90;;
11313;SDS011;5712;48.858;9.206;2024-03-22T01:27:44;17.57;;;11.13;;
11313;SDS011;5712;48.858;9.206;2024-03-22T01:30:12;17.10;;;11.33;;
11313;SDS011;5712;48.858;9.206;2024-03-22T01:32:38;16.00;;;10.37;;
11313;SDS011;5712;48.858;9.206;2024-03-22T01:35:05;17.70;;;10.90;;
11313;SDS011;5712;48.858;9.206;2024-03-22T01:37:31;16.97;;;10.27;;
11313;SDS011;5712;48.858;9.206;2024-03-22T01:39:57;16.20;;;10.97;;
11313;SDS011;5712;48.858;9.206;2024-03-22T01:42:23;15.73;;;10.20;;
11313;SDS011;5712;48.858;9.206;2024-03-22T01:44:49;15.70;;;10.00;;
11313;SDS011;5712;48.858;9.206;2024-03-22T01:47:17;16.37;;;9.93;;
11313;SDS011;5712;48.858;9.206;2024-03-22T01:49:43;17.67;;;9.60;;
11313;SDS011;5712;48.858;9.206;2024-03-22T01:52:09;14.57;;;8.97;;
11313;SDS011;5712;48.858;9.206;2024-03-22T01:54:36;14.43;;;9.77;;
11313;SDS011;5712;48.858;9.206;2024-03-22T01:57:01;15.90;;;9.83;;
11313;SDS011;5712;48.858;9.206;2024-03-22T01:59:28;16.73;;;9.73;;
11313;SDS011;5712;48.858;9.206;2024-03-22T02:01:55;16.50;;;10.67;;
11313;SDS011;5712;48.858;9.206;2024-03-22T02:04:23;16.03;;;10.27;;
11313;SDS011;5712;48.858;9.206;2024-03-22T02:06:48;18.33;;;10.10;;
11313;SDS011;5712;48.858;9.206;2024-03-22T02:09:15;14.57;;;9.73;;
11313;SDS011;5712;48.858;9.206;2024-03-22T02:11:41;14.33;;;10.57;;
11313;SDS011;5712;48.858;9.206;2024-03-22T02:14:08;14.27;;;10.17;;
11313;SDS011;5712;48.858;9.206;2024-03-22T02:16:34;18.03;;;9.47;;
11313;SDS011;5712;48.858;9.206;2024-03-22T02:19:00;15.80;;;8.23;;
11313;SDS011;5712;48.858;9.206;2024-03-22T02:21:27;15.37;;;9.83;;
11313;SDS011;5712;48.858;9.206;2024-03-22T02:23:55;16.03;;;8.83;;
11313;SDS011;5712;48.858;9.206;2024-03-22T02:26:20;14.13;;;9.50;;
11313;SDS011;5712;48.858;9.206;2024-03-22T02:28:47;16.73;;;10.07;;
11313;SDS011;5712;48.858;9.206;2024-03-22T02:31:12;14.67;;;9.73;;
11313;SDS011;5712;48.858;9.206;2024-03-22T02:33:39;19.50;;;10.70;;
11313;SDS011;5712;48.858;9.206;2024-03-22T02:36:04;17.83;;;10.37;;
11313;SDS011;5712;48.858;9.206;2024-03-22T02:38:31;18.33;;;11.37;;
11313;SDS011;5712;48.858;9.206;2024-03-22T02:40:58;16.70;;;10.63;;
11313;SDS011;5712;48.858;9.206;2024-03-22T02:43:25;16.83;;;11.47;;
11313;SDS011;5712;48.858;9.206;2024-03-22T02:45:50;20.37;;;12.67;;
11313;SDS011;5712;48.858;9.206;2024-03-22T02:48:17;17.70;;;11.87;;
11313;SDS011;5712;48.858;9.206;2024-03-22T02:50:42;19.73;;;12.10;;
11313;SDS011;5712;48.858;9.206;2024-03-22T02:53:09;21.03;;;12.57;;
11313;SDS011;5712;48.858;9.206;2024-03-22T02:55:38;24.67;;;14.43;;
11313;SDS011;5712;48.858;9.206;2024-03-22T02:58:06;22.93;;;13.67;;
11313;SDS011;5712;48.858;9.206;2024-03-22T03:00:35;24.13;;;14.33;;
11313;SDS011;5712;48.858;9.206;2024-03-22T03:03:02;25.07;;;14.97;;
11313;SDS011;5712;48.858;9.206;2024-03-22T03:05:27;25.57;;;14.53;;
11313;SDS011;5712;48.858;9.206;2024-03-22T03:07:54;22.70;;;14.40;;
11313;SDS011;5712;48.858;9.206;2024-03-22T03:10:20;24.60;;;14.87;;
11313;SDS011;5712;48.858;9.206;2024-03-22T03:12:46;23.73;;;13.97;;
11313;SDS011;5712;48.858;9.206;2024-03-22T03:15:13;21.17;;;14.27;;
11313;SDS011;5712;48.858;9.206;2024-03-22T03:17:40;23.20;;;15.17;;
11313;SDS011;5712;48.858;9.206;2024-03-22T03:20:06;24.53;;;15.10;;
11313;SDS011;5712;48.858;9.206;2024-03-22T03:22:38;25.37;;;15.20;;
11313;SDS011;5712;48.858;9.206;2024-03-22T03:25:04;23.63;;;15.40;;
11313;SDS011;5712;48.858;9.206;2024-03-22T03:27:31;24.70;;;14.33;;
11313;SDS011;5712;48.858;9.206;2024-03-22T03:29:57;22.07;;;15.07;;
11313;SDS011;5712;48.858;9.206;2024-03-22T03:32:25;24.33;;;14.50;;
11313;SDS011;5712;48.858;9.206;2024-03-22T03:34:50;23.87;;;14.33;;
11313;SDS011;5712;48.858;9.206;2024-03-22T03:37:17;21.93;;;14.47;;
11313;SDS011;5712;48.858;9.206;2024-03-22T03:39:42;28.50;;;14.90;;
11313;SDS011;5712;48.858;9.206;2024-03-22T03:42:09;23.27;;;13.90;;
11313;SDS011;5712;48.858;9.206;2024-03-22T03:44:34;22.87;;;14.67;;
11313;SDS011;5712;48.858;9.206;2024-03-22T03:47:01;22.67;;;14.80;;
11313;SDS011;5712;48.858;9.206;2024-03-22T03:49:28;26.30;;;14.37;;
11313;SDS011;5712;48.858;9.206;2024-03-22T03:51:55;24.87;;;14.90;;
11313;SDS011;5712;48.858;9.206;2024-03-22T03:54:20;23.30;;;14.43;;
11313;SDS011;5712;48.858;9.206;2024-03-22T03:56:47;20.47;;;14.07;;
11313;SDS011;5712;48.858;9.206;2024-03-22T03:59:12;19.63;;;13.40;;
11313;SDS011;5712;48.858;9.206;2024-03-22T04:01:39;24.53;;;14.30;;
11313;SDS011;5712;48.858;9.206;2024-03-22T04:04:04;24.07;;;14.30;;
11313;SDS011;5712;48.858;9.206;2024-03-22T04:06:32;25.10;;;14.57;;
11313;SDS011;5712;48.858;9.206;2024-03-22T04:08:59;25.83;;;15.43;;
11313;SDS011;5712;48.858;9.206;2024-03-22T04:11:25;22.93;;;14.70;;
11313;SDS011;5712;48.858;9.206;2024-03-22T04:13:51;26.93;;;15.07;;
11313;SDS011;5712;48.858;9.206;2024-03-22T04:16:17;28.13;;;15.97;;
11313;SDS011;5712;48.858;9.206;2024-03-22T04:18:43;26.23;;;15.10;;
11313;SDS011;5712;48.858;9.206;2024-03-22T04:21:10;28.10;;;14.57;;
11313;SDS011;5712;48.858;9.206;2024-03-22T04:23:37;23.33;;;14.87;;
11313;SDS011;5712;48.858;9.206;2024-03-22T04:26:03;25.27;;;15.40;;
11313;SDS011;5712;48.858;9.206;2024-03-22T04:28:29;23.20;;;15.20;;
11313;SDS011;5712;48.858;9.206;2024-03-22T04:30:59;25.30;;;15.17;;
11313;SDS011;5712;48.858;9.206;2024-03-22T04:33:26;23.00;;;15.07;;
11313;SDS011;5712;48.858;9.206;2024-03-22T04:35:52;21.53;;;13.97;;
11313;SDS011;5712;48.858;9.206;2024-03-22T04:38:18;18.03;;;12.37;;
11313;SDS011;5712;48.858;9.206;2024-03-22T04:40:46;17.77;;;12.30;;
11313;SDS011;5712;48.858;9.206;2024-03-22T04:43:12;18.63;;;13.43;;
11313;SDS011;5712;48.858;9.206;2024-03-22T04:45:41;19.60;;;12.37;;
11313;SDS011;5712;48.858;9.206;2024-03-22T04:48:08;19.20;;;12.83;;
11313;SDS011;5712;48.858;9.206;2024-03-22T04:50:33;18.57;;;12.60;;
11313;SDS011;5712;48.858;9.206;2024-03-22T04:53:00;19.33;;;12.80;;
11313;SDS011;5712;48.858;9.206;2024-03-22T04:55:25;17.53;;;11.17;;
11313;SDS011;5712;48.858;9.206;2024-03-22T04:57:53;17.50;;;11.53;;
11313;SDS011;5712;48.858;9.206;2024-03-22T05:00:19;17.47;;;9.87;;
11313;SDS011;5712;48.858;9.206;2024-03-22T05:02:45;17.80;;;10.27;;
11313;SDS011;5712;48.858;9.206;2024-03-22T05:05:11;15.27;;;10.43;;
11313;SDS011;5712;48.858;9.206;2024-03-22T05:07:37;16.70;;;10.27;;
11313;SDS011;5712;48.858;9.206;2024-03-22T05:10:03;14.47;;;10.13;;
11313;SDS011;5712;48.858;9.206;2024-03-22T05:12:30;16.10;;;10.50;;
11313;SDS011;5712;48.858;9.206;2024-03-22T05:14:57;14.87;;;9.73;;
11313;SDS011;5712;48.858;9.206;2024-03-22T05:17:24;15.57;;;9.70;;
11313;SDS011;5712;48.858;9.206;2024-03-22T05:19:49;13.93;;;9.73;;
11313;SDS011;5712;48.858;9.206;2024-03-22T05:22:17;17.27;;;10.17;;
11313;SDS011;5712;48.858;9.206;2024-03-22T05:24:45;14.77;;;9.17;;
11313;SDS011;5712;48.858;9.206;2024-03-22T05:27:11;15.20;;;10.10;;
11313;SDS011;5712;48.858;9.206;2024-03-22T05:29:37;12.57;;;8.93;;
11313;SDS011;5712;48.858;9.206;2024-03-22T05:32:06;16.83;;;10.03;;
11313;SDS011;5712;48.858;9.206;2024-03-22T05:34:33;16.70;;;10.00;;
11313;SDS011;5712;48.858;9.206;2024-03-22T05:36:59;18.83;;;9.87;;
11313;SDS011;5712;48.858;9.206;2024-03-22T05:39:26;16.63;;;10.23;;
11313;SDS011;5712;48.858;9.206;2024-03-22T05:41:51;13.90;;;9.67;;
11313;SDS011;5712;48.858;9.206;2024-03-22T05:44:19;13.37;;;9.03;;
11313;SDS011;5712;48.858;9.206;2024-03-22T05:46:45;17.20;;;9.93;;
11313;SDS011;5712;48.858;9.206;2024-03-22T05:49:13;14.63;;;10.47;;
11313;SDS011;5712;48.858;9.206;2024-03-22T05:51:38;15.60;;;10.37;;
11313;SDS011;5712;48.858;9.206;2024-03-22T05:54:05;15.70;;;10.37;;
11313;SDS011;5712;48.858;9.206;2024-03-22T05:56:32;15.43;;;10.30;;
11313;SDS011;5712;48.858;9.206;2024-03-22T05:58:59;13.47;;;9.17;;
11313;SDS011;5712;48.858;9.206;2024-03-22T06:01:24;16.13;;;9.37;;
11313;SDS011;5712;48.858;9.206;2024-03-22T06:03:51;13.37;;;9.13;;
11313;SDS011;5712;48.858;9.206;2024-03-22T06:06:18;12.17;;;8.87;;
11313;SDS011;5712;48.858;9.206;2024-03-22T06:08:47;13.87;;;8.80;;
11313;SDS011;5712;48.858;9.206;2024-03-22T06:11:17;16.07;;;9.27;;
11313;SDS011;5712;48.858;9.206;2024-03-22T06:13:43;12.90;;;8.87;;
11313;SDS011;5712;48.858;9.206;2024-03-22T06:16:09;13.13;;;8.57;;
11313;SDS011;5712;48.858;9.206;2024-03-22T06:18:36;13.13;;;8.73;;
11313;SDS011;5712;48.858;9.206;2024-03-22T06:21:01;13.20;;;8.17;;
11313;SDS011;5712;48.858;9.206;2024-03-22T06:23:30;15.17;;;9.40;;
11313;SDS011;5712;48.858;9.206;2024-03-22T06:25:55;15.47;;;10.03;;
11313;SDS011;5712;48.858;9.206;2024-03-22T06:28:22;13.97;;;8.47;;
11313;SDS011;5712;48.858;9.206;2024-03-22T06:30:49;13.77;;;9.70;;
11313;SDS011;5712;48.858;9.206;2024-03-22T06:33:14;16.37;;;10.20;;
11313;SDS011;5712;48.858;9.206;2024-03-22T06:35:41;15.70;;;10.50;;
11313;SDS011;5712;48.858;9.206;2024-03-22T06:38:06;14.27;;;9.77;;
11313;SDS011;5712;48.858;9.206;2024-03-22T06:40:35;15.23;;;10.10;;
11313;SDS011;5712;48.858;9.206;2024-03-22T06:43:00;14.93;;;9.77;;
11313;SDS011;5712;48.858;9.206;2024-03-22T06:45:27;14.73;;;10.03;;
11313;SDS011;5712;48.858;9.206;2024-03-22T06:47:53;13.57;;;9.40;;
11313;SDS011;5712;48.858;9.206;2024-03-22T06:50:20;19.03;;;11.70;;
11313;SDS011;5712;48.858;9.206;2024-03-22T06:52:49;21.07;;;12.83;;
11313;SDS011;5712;48.858;9.206;2024-03-22T06:55:16;20.57;;;12.23;;
11313;SDS011;5712;48.858;9.206;2024-03-22T06:57:43;20.17;;;11.77;;
11313;SDS011;5712;48.858;9.206;2024-03-22T07:00:10;15.87;;;11.57;;
11313;SDS011;5712;48.858;9.206;2024-03-22T07:02:38;17.73;;;11.80;;
11313;SDS011;5712;48.858;9.206;2024-03-22T07:05:05;18.80;;;12.07;;
11313;SDS011;5712;48.858;9.206;2024-03-22T07:07:31;20.13;;;12.00;;
11313;SDS011;5712;48.858;9.206;2024-03-22T07:09:57;17.77;;;11.70;;
11313;SDS011;5712;48.858;9.206;2024-03-22T07:12:23;16.10;;;11.20;;
11313;SDS011;5712;48.858;9.206;2024-03-22T07:14:51;17.20;;;11.10;;
11313;SDS011;5712;48.858;9.206;2024-03-22T07:17:17;17.97;;;11.77;;
11313;SDS011;5712;48.858;9.206;2024-03-22T07:19:48;16.17;;;11.30;;
11313;SDS011;5712;48.858;9.206;2024-03-22T07:22:14;18.80;;;12.03;;
11313;SDS011;5712;48.858;9.206;2024-03-22T07:24:40;17.23;;;11.60;;
11313;SDS011;5712;48.858;9.206;2024-03-22T07:27:06;18.13;;;10.63;;
11313;SDS011;5712;48.858;9.206;2024-03-22T07:29:32;19.63;;;12.00;;
11313;SDS011;5712;48.858;9.206;2024-03-22T07:32:00;16.80;;;11.40;;
11313;SDS011;5712;48.858;9.206;2024-03-22T07:34:26;17.23;;;11.00;;
11313;SDS011;5712;48.858;9.206;2024-03-22T07:36:52;17.90;;;11.30;;
11313;SDS011;5712;48.858;9.206;2024-03-22T07:39:18;18.63;;;11.03;;
11313;SDS011;5712;48.858;9.206;2024-03-22T07:41:44;15.70;;;10.63;;
11313;SDS011;5712;48.858;9.206;2024-03-22T07:44:10;14.53;;;10.13;;
11313;SDS011;5712;48.858;9.206;2024-03-22T07:46:36;16.37;;;10.93;;
11313;SDS011;5712;48.858;9.206;2024-03-22T07:49:04;15.87;;;10.40;;
11313;SDS011;5712;48.858;9.206;2024-03-22T07:51:29;15.63;;;10.40;;
11313;SDS011;5712;48.858;9.206;2024-03-22T07:53:56;14.93;;;9.80;;
11313;SDS011;5712;48.858;9.206;2024-03-22T07:56:21;13.30;;;9.23;;
11313;SDS011;5712;48.858;9.206;2024-03-22T07:58:48;12.63;;;9.87;;
11313;SDS011;5712;48.858;9.206;2024-03-22T08:01:13;14.20;;;10.07;;
11313;SDS011;5712;48.858;9.206;2024-03-22T08:03:41;15.13;;;10.40;;
11313;SDS011;5712;48.858;9.206;2024-03-22T08:06:08;16.27;;;10.23;;
11313;SDS011;5712;48.858;9.206;2024-03-22T08:08:35;14.97;;;10.10;;
11313;SDS011;5712;48.858;9.206;2024-03-22T08:11:00;13.00;;;9.47;;
11313;SDS011;5712;48.858;9.206;2024-03-22T08:13:27;12.33;;;9.07;;
11313;SDS011;5712;48.858;9.206;2024-03-22T08:15:52;11.47;;;8.93;;
11313;SDS011;5712;48.858;9.206;2024-03-22T08:18:19;15.13;;;9.27;;
11313;SDS011;5712;48.858;9.206;2024-03-22T08:20:45;12.53;;;9.43;;
11313;SDS011;5712;48.858;9.206;2024-03-22T08:23:13;15.37;;;9.43;;
11313;SDS011;5712;48.858;9.206;2024-03-22T08:25:38;11.80;;;9.30;;
11313;SDS011;5712;48.858;9.206;2024-03-22T08:28:05;14.60;;;8.77;;
11313;SDS011;5712;48.858;9.206;2024-03-22T08:30:30;12.47;;;9.00;;
11313;SDS011;5712;48.858;9.206;2024-03-22T08:32:57;15.00;;;9.70;;
11313;SDS011;5712;48.858;9.206;2024-03-22T08:35:22;12.87;;;8.33;;
11313;SDS011;5712;48.858;9.206;2024-03-22T08:37:49;12.43;;;9.17;;
11313;SDS011;5712;48.858;9.206;2024-03-22T08:40:16;10.93;;;8.53;;
11313;SDS011;5712;48.858;9.206;2024-03-22T08:42:43;11.03;;;8.87;;
11313;SDS011;5712;48.858;9.206;2024-03-22T08:45:08;11.20;;;8.23;;
11313;SDS011;5712;48.858;9.206;2024-03-22T08:47:35;12.07;;;8.33;;
11313;SDS011;5712;48.858;9.206;2024-03-22T08:50:00;11.03;;;7.97;;
11313;SDS011;5712;48.858;9.206;2024-03-22T08:52:27;14.63;;;8.77;;
11313;SDS011;5712;48.858;9.206;2024-03-22T08:54:53;11.43;;;8.60;;
11313;SDS011;5712;48.858;9.206;2024-03-22T08:57:21;12.47;;;8.53;;
11313;SDS011;5712;48.858;9.206;2024-03-22T08:59:47;11.93;;;8.33;;
11313;SDS011;5712;48.858;9.206;2024-03-22T09:02:14;10.13;;;8.20;;
11313;SDS011;5712;48.858;9.206;2024-03-22T09:04:39;12.23;;;8.97;;
11313;SDS011;5712;48.858;9.206;2024-03-22T09:07:06;10.30;;;8.90;;
11313;SDS011;5712;48.858;9.206;2024-03-22T09:09:32;11.43;;;8.33;;
11313;SDS011;5712;48.858;9.206;2024-03-22T09:11:59;11.30;;;8.70;;
11313;SDS011;5712;48.858;9.206;2024-03-22T09:14:25;12.20;;;8.63;;
11313;SDS011;5712;48.858;9.206;2024-03-22T09:16:52;10.43;;;8.37;;
11313;SDS011;5712;48.858;9.206;2024-03-22T09:19:18;11.70;;;8.27;;
11313;SDS011;5712;48.858;9.206;2024-03-22T09:21:45;12.27;;;8.43;;
11313;SDS011;5712;48.858;9.206;2024-03-22T09:24:11;14.07;;;8.37;;
11313;SDS011;5712;48.858;9.206;2024-03-22T09:26:37;12.10;;;8.20;;
11313;SDS011;5712;48.858;9.206;2024-03-22T09:29:03;13.83;;;8.97;;
11313;SDS011;5712;48.858;9.206;2024-03-22T09:31:30;12.73;;;8.37;;
11313;SDS011;5712;48.858;9.206;2024-03-22T09:33:57;10.23;;;8.13;;
11313;SDS011;5712;48.858;9.206;2024-03-22T09:36:24;10.67;;;8.03;;
11313;SDS011;5712;48.858;9.206;2024-03-22T09:38:49;10.93;;;7.80;;
11313;SDS011;5712;48.858;9.206;2024-03-22T09:41:16;11.30;;;7.97;;
11313;SDS011;5712;48.858;9.206;2024-03-22T09:43:47;8.93;;;7.13;;
11313;SDS011;5712;48.858;9.206;2024-03-22T09:46:16;8.57;;;7.00;;
11313;SDS011;5712;48.858;9.206;2024-03-22T09:48:44;11.00;;;7.53;;
11313;SDS011;5712;48.858;9.206;2024-03-22T09:51:13;9.23;;;6.83;;
11313;SDS011;5712;48.858;9.206;2024-03-22T09:53:42;9.83;;;6.80;;
11313;SDS011;5712;48.858;9.206;2024-03-22T09:56:10;11.07;;;6.77;;
11313;SDS011;5712;48.858;9.206;2024-03-22T09:58:39;9.30;;;7.20;;
11313;SDS011;5712;48.858;9.206;2024-03-22T10:01:06;7.70;;;6.13;;
11313;SDS011;5712;48.858;9.206;2024-03-22T10:03:31;11.07;;;6.83;;
11313;SDS011;5712;48.858;9.206;2024-03-22T10:06:03;10.00;;;7.27;;
11313;SDS011;5712;48.858;9.206;2024-03-22T10:08:29;7.20;;;5.63;;
11313;SDS011;5712;48.858;9.206;2024-03-22T10:10:57;7.37;;;5.90;;
11313;SDS011;5712;48.858;9.206;2024-03-22T10:13:22;5.67;;;4.17;;
11313;SDS011;5712;48.858;9.206;2024-03-22T10:15:49;6.73;;;4.83;;
11313;SDS011;5712;48.858;9.206;2024-03-22T10:18:14;6.73;;;4.40;;
11313;SDS011;5712;48.858;9.206;2024-03-22T10:20:41;6.43;;;4.90;;
11313;SDS011;5712;48.858;9.206;2024-03-22T10:23:08;6.53;;;4.83;;
11313;SDS011;5712;48.858;9.206;2024-03-22T10:25:35;7.37;;;5.50;;
11313;SDS011;5712;48.858;9.206;2024-03-22T10:28:01;7.50;;;5.40;;
11313;SDS011;5712;48.858;9.206;2024-03-22T10:30:29;7.27;;;5.30;;
11313;SDS011;5712;48.858;9.206;2024-03-22T10:32:56;6.37;;;5.63;;
11313;SDS011;5712;48.858;9.206;2024-03-22T10:35:22;8.60;;;6.17;;
11313;SDS011;5712;48.858;9.206;2024-03-22T10:37:49;4.87;;;4.10;;
11313;SDS011;5712;48.858;9.206;2024-03-22T10:40:18;4.50;;;4.10;;
11313;SDS011;5712;48.858;9.206;2024-03-22T10:42:45;6.43;;;4.67;;
11313;SDS011;5712;48.858;9.206;2024-03-22T10:45:12;5.27;;;4.30;;
11313;SDS011;5712;48.858;9.206;2024-03-22T10:47:38;5.17;;;4.37;;
11313;SDS011;5712;48.858;9.206;2024-03-22T10:50:05;8.57;;;5.40;;
11313;SDS011;5712;48.858;9.206;2024-03-22T10:52:33;7.63;;;4.83;;
11313;SDS011;5712;48.858;9.206;2024-03-22T10:55:02;8.27;;;5.87;;
11313;SDS011;5712;48.858;9.206;2024-03-22T10:57:31;5.83;;;5.03;;
11313;SDS011;5712;48.858;9.206;2024-03-22T11:00:02;6.43;;;5.03;;
11313;SDS011;5712;48.858;9.206;2024-03-22T11:02:28;6.30;;;5.03;;
11313;SDS011;5712;48.858;9.206;2024-03-22T11:04:58;6.93;;;4.50;;
11313;SDS011;5712;48.858;9.206;2024-03-22T11:07:28;7.87;;;5.60;;
11313;SDS011;5712;48.858;9.206;2024-03-22T11:10:00;7.17;;;5.30;;
11313;SDS011;5712;48.858;9.206;2024-03-22T11:12:28;7.13;;;5.20;;
11313;SDS011;5712;48.858;9.206;2024-03-22T11:15:01;6.57;;;5.30;;
11313;SDS011;5712;48.858;9.206;2024-03-22T11:17:28;5.93;;;4.40;;
11313;SDS011;5712;48.858;9.206;2024-03-22T11:19:55;8.53;;;5.43;;
11313;SDS011;5712;48.858;9.206;2024-03-22T11:22:21;8.03;;;4.90;;
11313;SDS011;5712;48.858;9.206;2024-03-22T11:24:47;7.73;;;5.03;;
11313;SDS011;5712;48.858;9.206;2024-03-22T11:27:13;8.13;;;4.67;;
11313;SDS011;5712;48.858;9.206;2024-03-22T11:29:40;4.57;;;3.80;;
11313;SDS011;5712;48.858;9.206;2024-03-22T11:32:08;6.23;;;3.90;;
11313;SDS011;5712;48.858;9.206;2024-03-22T11:34:34;4.50;;;3.50;;
11313;SDS011;5712;48.858;9.206;2024-03-22T11:37:03;5.47;;;3.80;;
11313;SDS011;5712;48.858;9.206;2024-03-22T11:39:30;4.80;;;3.47;;
11313;SDS011;5712;48.858;9.206;2024-03-22T11:41:55;5.97;;;4.40;;
11313;SDS011;5712;48.858;9.206;2024-03-22T11:44:24;4.73;;;4.00;;
11313;SDS011;5712;48.858;9.206;2024-03-22T11:46:50;5.00;;;3.63;;
11313;SDS011;5712;48.858;9.206;2024-03-22T11:49:22;4.23;;;3.53;;
11313;SDS011;5712;48.858;9.206;2024-03-22T11:51:51;4.80;;;3.17;;
11313;SDS011;5712;48.858;9.206;2024-03-22T11:54:18;4.07;;;3.43;;
11313;SDS011;5712;48.858;9.206;2024-03-22T11:56:45;3.50;;;3.17;;
11313;SDS011;5712;48.858;9.206;2024-03-22T11:59:12;3.90;;;3.30;;
11313;SDS011;5712;48.858;9.206;2024-03-22T12:01:37;5.93;;;3.70;;
11313;SDS011;5712;48.858;9.206;2024-03-22T12:04:06;4.60;;;3.00;;
11313;SDS011;5712;48.858;9.206;2024-03-22T12:06:41;3.90;;;2.67;;
11313;SDS011;5712;48.858;9.206;2024-03-22T12:09:08;3.27;;;2.80;;
11313;SDS011;5712;48.858;9.206;2024-03-22T12:11:37;3.33;;;2.83;;
11313;SDS011;5712;48.858;9.206;2024-03-22T12:14:04;4.37;;;2.90;;
11313;SDS011;5712;48.858;9.206;2024-03-22T12:16:30;2.60;;;2.30;;
11313;SDS011;5712;48.858;9.206;2024-03-22T12:18:57;5.40;;;3.40;;
11313;SDS011;5712;48.858;9.206;2024-03-22T12:21:22;3.77;;;2.87;;
11313;SDS011;5712;48.858;9.206;2024-03-22T12:23:50;5.30;;;3.60;;
11313;SDS011;5712;48.858;9.206;2024-03-22T12:26:16;5.20;;;3.40;;
11313;SDS011;5712;48.858;9.206;2024-03-22T12:28:43;5.13;;;3.57;;
11313;SDS011;5712;48.858;9.206;2024-03-22T12:31:08;4.87;;;3.40;;
11313;SDS011;5712;48.858;9.206;2024-03-22T12:33:36;6.20;;;3.70;;
11313;SDS011;5712;48.858;9.206;2024-03-22T12:36:02;4.33;;;3.53;;
11313;SDS011;5712;48.858;9.206;2024-03-22T12:38:29;4.80;;;3.63;;
11313;SDS011;5712;48.858;9.206;2024-03-22T12:40:55;5.87;;;3.80;;
11313;SDS011;5712;48.858;9.206;2024-03-22T12:43:22;3.57;;;3.27;;
11313;SDS011;5712;48.858;9.206;2024-03-22T12:45:48;3.90;;;3.00;;
11313;SDS011;5712;48.858;9.206;2024-03-22T12:48:15;4.03;;;3.20;;
11313;SDS011;5712;48.858;9.206;2024-03-22T12:50:41;3.87;;;2.80;;
11313;SDS011;5712;48.858;9.206;2024-03-22T12:53:07;3.30;;;3.00;;
11313;SDS011;5712;48.858;9.206;2024-03-22T12:55:33;3.63;;;3.20;;
11313;SDS011;5712;48.858;9.206;2024-03-22T12:58:00;5.23;;;3.63;;
11313;SDS011;5712;48.858;9.206;2024-03-22T13:00:26;5.03;;;3.10;;
11313;SDS011;5712;48.858;9.206;2024-03-22T13:02:57;4.83;;;2.77;;
11313;SDS011;5712;48.858;9.206;2024-03-22T13:05:23;4.30;;;2.80;;
11313;SDS011;5712;48.858;9.206;2024-03-22T13:07:49;4.37;;;3.20;;
11313;SDS011;5712;48.858;9.206;2024-03-22T13:10:15;4.13;;;3.33;;
11313;SDS011;5712;48.858;9.206;2024-03-22T13:12:42;4.33;;;2.90;;
11313;SDS011;5712;48.858;9.206;2024-03-22T13:15:09;4.80;;;3.07;;
11313;SDS011;5712;48.858;9.206;2024-03-22T13:17:35;7.43;;;3.63;;
11313;SDS011;5712;48.858;9.206;2024-03-22T13:20:01;5.27;;;3.53;;
11313;SDS011;5712;48.858;9.206;2024-03-22T13:22:36;3.13;;;2.73;;
11313;SDS011;5712;48.858;9.206;2024-03-22T13:25:02;5.53;;;3.40;;
11313;SDS011;5712;48.858;9.206;2024-03-22T13:27:32;4.13;;;3.70;;
11313;SDS011;5712;48.858;9.206;2024-03-22T13:29:59;4.83;;;3.70;;
11313;SDS011;5712;48.858;9.206;2024-03-22T13:32:27;3.67;;;2.90;;
11313;SDS011;5712;48.858;9.206;2024-03-22T13:34:52;6.53;;;3.57;;
11313;SDS011;5712;48.858;9.206;2024-03-22T13:37:19;4.17;;;3.17;;
11313;SDS011;5712;48.858;9.206;2024-03-22T13:39:47;4.03;;;3.63;;
11313;SDS011;5712;48.858;9.206;2024-03-22T13:42:14;5.13;;;4.20;;
11313;SDS011;5712;48.858;9.206;2024-03-22T13:44:39;5.03;;;3.30;;
11313;SDS011;5712;48.858;9.206;2024-03-22T13:47:06;5.27;;;3.60;;
11313;SDS011;5712;48.858;9.206;2024-03-22T13:49:33;4.67;;;3.17;;
11313;SDS011;5712;48.858;9.206;2024-03-22T13:52:00;4.27;;;3.57;;
11313;SDS011;5712;48.858;9.206;2024-03-22T13:54:26;4.50;;;3.03;;
11313;SDS011;5712;48.858;9.206;2024-03-22T13:56:52;4.50;;;3.30;;
11313;SDS011;5712;48.858;9.206;2024-03-22T13:59:18;3.77;;;3.23;;
11313;SDS011;5712;48.858;9.206;2024-03-22T14:01:44;3.77;;;2.73;;
11313;SDS011;5712;48.858;9.206;2024-03-22T14:04:12;5.23;;;2.90;;
11313;SDS011;5712;48.858;9.206;2024-03-22T14:06:41;4.07;;;3.37;;
11313;SDS011;5712;48.858;9.206;2024-03-22T14:09:07;5.40;;;3.23;;
11313;SDS011;5712;48.858;9.206;2024-03-22T14:11:35;3.17;;;2.87;;
11313;SDS011;5712;48.858;9.206;2024-03-22T14:14:01;4.87;;;2.93;;
11313;SDS011;5712;48.858;9.206;2024-03-22T14:16:28;3.50;;;2.90;;
11313;SDS011;5712;48.858;9.206;2024-03-22T14:18:55;3.63;;;2.80;;
11313;SDS011;5712;48.858;9.206;2024-03-22T14:21:21;4.93;;;3.03;;
11313;SDS011;5712;48.858;9.206;2024-03-22T14:23:49;3.70;;;2.60;;
11313;SDS011;5712;48.858;9.206;2024-03-22T14:26:16;2.90;;;2.50;;
11313;SDS011;5712;48.858;9.206;2024-03-22T14:28:42;2.93;;;1.50;;
11313;SDS011;5712;48.858;9.206;2024-03-22T14:31:09;2.03;;;1.70;;
11313;SDS011;5712;48.858;9.206;2024-03-22T14:33:35;1.90;;;1.50;;
11313;SDS011;5712;48.858;9.206;2024-03-22T14:36:01;3.33;;;1.53;;
11313;SDS011;5712;48.858;9.206;2024-03-22T14:38:27;2.60;;;1.93;;
11313;SDS011;5712;48.858;9.206;2024-03-22T14:40:55;1.73;;;1.47;;